Liepaja, Latvia
Current Conditions -  °F | °C
As of 3:20 PM on Thursday 29 Jan 2015 (Local Time) from EYPA Reporting Station
Rain Showers Rain Showers  
Wind Chill: 28°   Ceiling: 1300
Heat Index: 36°   Visibility: 6mi
Dew Point: 34°   Wind: 12mph
Humidity: 93%   Direction: 220°SW
Pressure: 29.15"   Gusts: NA
Location:  56.51°N, 21.01°E
Report Text: EYPA 291220Z 22010KT 190V250 9999 -SHRA SCT008CB BKN013 BKN03102/01 Q0987 R19/2///95
Loading
Personal Weather Stations






























Interactive Weather Map New forecast layout! Learn more

10-Day Weather Forecast

Advertisements
Track Severe Weather on mobile